Time;durP1;ratioP1;P1;durP2;ratioP2;P2;SDS_P1;SDS_P2;PMS_P1;PMS_P2;Temp;Humidity;BMP_temperature;BMP_pressure;BME280_temperature;BME280_humidity;BME280_pressure;Samples;Min_cycle;Max_cycle;Signal;HPM_P1;HPM_P2
2023/04/27 00:01:46;;;;;;;4.47;2.70;;;;;;;4.85;82.27;100709.91;5067717;28;20198;-69
2023/04/27 00:04:13;;;;;;;4.87;2.70;;;;;;;4.70;84.18;100707.53;5067492;28;20194;-71
2023/04/27 00:06:40;;;;;;;4.97;2.97;;;;;;;4.57;85.18;100709.56;5068908;28;20229;-69
2023/04/27 00:09:06;;;;;;;5.33;3.10;;;;;;;4.58;88.32;100703.50;5066427;28;20626;-70
2023/04/27 00:11:33;;;;;;;5.60;3.30;;;;;;;4.53;89.04;100694.56;5050838;28;20276;-69
2023/04/27 00:13:59;;;;;;;8.60;3.17;;;;;;;4.55;89.54;100696.41;5067624;28;20204;-68
2023/04/27 00:16:25;;;;;;;4.67;3.40;;;;;;;4.54;90.49;100697.22;5066614;28;20308;-70
2023/04/27 00:18:52;;;;;;;4.40;3.00;;;;;;;4.60;89.37;100694.88;5068053;28;20625;-70
2023/04/27 00:21:18;;;;;;;4.43;3.07;;;;;;;4.51;89.54;100698.84;5065144;28;20676;-69
2023/04/27 00:23:45;;;;;;;6.87;3.20;;;;;;;4.48;90.71;100696.09;5066905;28;20693;-68
2023/04/27 00:26:11;;;;;;;8.70;3.37;;;;;;;4.27;92.08;100690.81;5067782;28;20697;-69
2023/04/27 00:28:37;;;;;;;6.80;3.20;;;;;;;4.13;93.17;100695.44;5068988;28;20224;-69
2023/04/27 00:31:04;;;;;;;6.13;3.53;;;;;;;3.92;93.98;100695.38;5051696;28;20233;-70
2023/04/27 00:33:31;;;;;;;6.40;3.40;;;;;;;3.78;95.47;100700.00;5059876;28;20194;-70
2023/04/27 00:36:00;;;;;;;5.00;3.37;;;;;;;3.65;97.00;100699.41;5066915;28;20304;-70
2023/04/27 00:38:27;;;;;;;6.90;3.77;;;;;;;3.63;98.04;100701.06;5065188;28;20248;-70
2023/04/27 00:41:04;;;;;;;6.63;3.60;;;;;;;3.74;99.26;100697.19;5045622;28;20221;-68
2023/04/27 00:43:31;;;;;;;7.37;3.80;;;;;;;3.92;99.21;100707.59;5065995;28;20196;-70
2023/04/27 00:45:58;;;;;;;6.23;3.47;;;;;;;3.93;98.95;100696.28;5050186;28;20693;-68
2023/04/27 00:48:25;;;;;;;7.20;3.30;;;;;;;3.89;99.07;100703.09;5064584;28;20228;-69
2023/04/27 00:50:52;;;;;;;6.23;3.63;;;;;;;3.93;99.17;100699.78;5066925;28;20218;-70
2023/04/27 00:53:18;;;;;;;8.53;3.70;;;;;;;3.98;99.11;100694.75;5067338;28;20673;-68
2023/04/27 00:55:45;;;;;;;4.70;3.40;;;;;;;3.98;98.90;100692.13;5068580;28;20590;-69
2023/04/27 00:58:12;;;;;;;6.63;3.90;;;;;;;4.01;98.37;100690.56;5065363;28;20226;-70
2023/04/27 01:00:39;;;;;;;6.63;3.90;;;;;;;3.99;98.66;100694.81;5067183;28;20277;-68
2023/04/27 01:03:06;;;;;;;6.40;4.00;;;;;;;3.95;99.19;100698.13;5052020;28;20209;-69
2023/04/27 01:05:34;;;;;;;6.07;3.80;;;;;;;3.87;98.65;100696.91;5043020;28;20656;-69
2023/04/27 01:08:02;;;;;;;7.27;3.73;;;;;;;3.80;98.53;100707.94;5065071;28;20273;-69
2023/04/27 01:10:28;;;;;;;4.87;3.60;;;;;;;3.82;99.08;100711.53;5055293;28;20283;-71
2023/04/27 01:12:55;;;;;;;4.53;3.50;;;;;;;3.81;98.89;100703.59;5065832;28;20547;-69
2023/04/27 01:15:21;;;;;;;4.97;3.63;;;;;;;3.88;98.95;100703.94;5041234;28;20217;-69
2023/04/27 01:17:47;;;;;;;5.83;3.70;;;;;;;3.75;99.07;100701.59;5066956;28;20203;-71
2023/04/27 01:20:14;;;;;;;9.67;4.20;;;;;;;3.63;99.73;100704.56;5066828;28;20228;-69
2023/04/27 01:22:40;;;;;;;7.23;4.37;;;;;;;3.45;100.00;100701.06;5064876;28;20205;-69
2023/04/27 01:25:07;;;;;;;7.60;3.80;;;;;;;3.32;100.00;100711.81;5064247;28;20222;-68
2023/04/27 01:27:33;;;;;;;6.40;3.70;;;;;;;3.26;100.00;100714.13;5077546;28;20193;-70
2023/04/27 01:30:00;;;;;;;8.20;3.67;;;;;;;3.24;100.00;100718.41;5079986;28;20220;-70
2023/04/27 01:32:26;;;;;;;7.67;4.17;;;;;;;3.17;100.00;100711.94;5071308;28;20251;-70
2023/04/27 01:34:53;;;;;;;9.93;3.50;;;;;;;3.10;100.00;100725.56;5072937;28;20196;-70
2023/04/27 01:37:19;;;;;;;7.50;3.80;;;;;;;3.00;100.00;100721.63;5079283;28;20225;-70
2023/04/27 01:39:46;;;;;;;6.67;3.40;;;;;;;2.93;100.00;100716.91;5071949;28;20342;-68
2023/04/27 01:42:12;;;;;;;5.83;4.03;;;;;;;2.86;100.00;100717.44;5076543;28;20210;-70
2023/04/27 01:44:38;;;;;;;7.93;3.90;;;;;;;2.86;100.00;100720.06;5053033;28;20205;-70
2023/04/27 01:47:05;;;;;;;5.83;3.60;;;;;;;2.95;100.00;100709.13;5070420;28;20224;-69
2023/04/27 01:49:31;;;;;;;7.50;3.77;;;;;;;3.04;100.00;100715.72;5070935;28;20198;-70
2023/04/27 01:51:58;;;;;;;6.30;3.80;;;;;;;3.01;100.00;100718.19;5071584;28;20217;-69
2023/04/27 01:54:24;;;;;;;5.50;3.70;;;;;;;2.94;100.00;100712.56;5070690;28;20976;-69
2023/04/27 01:56:53;;;;;;;4.80;3.63;;;;;;;2.88;100.00;100715.78;5056623;28;20225;-70
2023/04/27 01:59:20;;;;;;;6.43;4.07;;;;;;;2.94;100.00;100715.19;5073332;28;20201;-70
2023/04/27 02:01:46;;;;;;;6.97;3.63;;;;;;;2.80;100.00;100712.81;5067260;28;20211;-69
2023/04/27 02:04:13;;;;;;;8.67;4.07;;;;;;;2.77;100.00;100720.47;5071985;28;20276;-70
2023/04/27 02:06:40;;;;;;;6.07;3.90;;;;;;;2.73;100.00;100721.16;5071891;28;20230;-70
2023/04/27 02:09:06;;;;;;;9.27;4.30;;;;;;;2.88;100.00;100721.03;5080745;28;20220;-68
2023/04/27 02:11:32;;;;;;;6.70;4.03;;;;;;;2.92;100.00;100719.47;5073534;28;20308;-69
2023/04/27 02:13:59;;;;;;;5.77;3.73;;;;;;;2.89;100.00;100728.06;5071362;28;20286;-69
2023/04/27 02:16:26;;;;;;;8.20;4.17;;;;;;;2.81;100.00;100732.91;5072240;28;20219;-71
2023/04/27 02:18:52;;;;;;;5.87;3.90;;;;;;;2.71;100.00;100732.34;5075407;28;20285;-70
2023/04/27 02:21:19;;;;;;;8.53;3.90;;;;;;;2.62;100.00;100729.28;5070313;28;20195;-68
2023/04/27 02:23:45;;;;;;;7.43;4.23;;;;;;;2.54;100.00;100726.28;5065464;28;20702;-70
2023/04/27 02:26:19;;;;;;;11.07;4.43;;;;;;;2.51;100.00;100733.97;5065636;28;20649;-69
2023/04/27 02:28:49;;;;;;;6.37;4.03;;;;;;;2.45;100.00;100731.94;5067973;28;20662;-70
2023/04/27 02:31:16;;;;;;;7.13;4.10;;;;;;;2.42;100.00;100733.50;5070034;28;20231;-69
2023/04/27 02:33:42;;;;;;;6.07;4.30;;;;;;;2.40;100.00;100741.28;5069269;28;20620;-69
2023/04/27 02:36:08;;;;;;;6.37;4.40;;;;;;;2.37;100.00;100743.69;5066155;28;20252;-69
2023/04/27 02:38:34;;;;;;;8.57;3.83;;;;;;;2.38;100.00;100741.97;5068583;28;20243;-71
2023/04/27 02:41:01;;;;;;;6.50;3.83;;;;;;;2.40;100.00;100746.50;5071206;28;20282;-70
2023/04/27 02:43:27;;;;;;;7.17;4.40;;;;;;;2.41;100.00;100743.06;5064260;28;20231;-70
2023/04/27 02:45:54;;;;;;;8.27;3.90;;;;;;;2.40;100.00;100743.88;5069507;28;20249;-70
2023/04/27 02:48:20;;;;;;;8.73;4.60;;;;;;;2.41;100.00;100732.63;5068178;28;20246;-69
2023/04/27 02:50:47;;;;;;;6.67;3.93;;;;;;;2.48;100.00;100737.34;5063175;28;20644;-69
2023/04/27 02:53:13;;;;;;;6.20;3.87;;;;;;;2.43;100.00;100733.59;5067462;28;20197;-70
2023/04/27 02:55:47;;;;;;;8.77;4.40;;;;;;;2.41;100.00;100730.00;5070021;28;20242;-69
2023/04/27 02:58:14;;;;;;;5.50;3.90;;;;;;;2.40;100.00;100730.81;5067500;28;20669;-69
2023/04/27 03:00:40;;;;;;;7.13;4.30;;;;;;;2.41;100.00;100742.19;5045683;28;20233;-70
2023/04/27 03:03:07;;;;;;;6.67;3.97;;;;;;;2.37;100.00;100724.50;5051837;28;20190;-69
2023/04/27 03:05:33;;;;;;;9.67;4.37;;;;;;;2.37;100.00;100722.78;5062194;28;20587;-68
2023/04/27 03:08:00;;;;;;;5.33;3.67;;;;;;;2.38;100.00;100728.91;5061219;28;20731;-69
2023/04/27 03:10:26;;;;;;;5.83;3.90;;;;;;;2.38;100.00;100721.97;5065713;28;20231;-69
2023/04/27 03:12:52;;;;;;;7.13;4.07;;;;;;;2.40;100.00;100724.66;5068091;28;20253;-68
2023/04/27 03:15:19;;;;;;;7.27;4.17;;;;;;;2.37;100.00;100720.19;5051236;28;20250;-70
2023/04/27 03:17:45;;;;;;;7.27;3.80;;;;;;;2.64;100.00;100725.03;5068697;28;20238;-69
2023/04/27 03:20:12;;;;;;;8.03;3.90;;;;;;;2.67;100.00;100733.03;5067223;28;20723;-69
2023/04/27 03:22:38;;;;;;;5.63;3.80;;;;;;;2.78;100.00;100732.72;5066231;28;20239;-69
2023/04/27 03:25:06;;;;;;;6.00;3.93;;;;;;;2.75;100.00;100729.97;5067921;28;20229;-68
2023/04/27 03:27:32;;;;;;;8.50;4.20;;;;;;;2.62;100.00;100726.66;5068729;28;20600;-68
2023/04/27 03:29:58;;;;;;;7.87;4.20;;;;;;;2.63;100.00;100734.59;5066005;28;20210;-69
2023/04/27 03:32:24;;;;;;;9.43;4.43;;;;;;;2.59;100.00;100727.41;5068329;28;20238;-70
2023/04/27 03:34:52;;;;;;;7.57;4.10;;;;;;;2.56;100.00;100716.81;5068262;28;20661;-69
2023/04/27 03:37:18;;;;;;;6.57;4.00;;;;;;;2.68;100.00;100711.28;5069472;28;20201;-69
2023/04/27 03:39:44;;;;;;;8.47;4.10;;;;;;;2.74;100.00;100715.09;5065907;28;20202;-70
2023/04/27 03:42:11;;;;;;;9.40;4.27;;;;;;;2.73;100.00;100717.63;5067126;28;20198;-68
2023/04/27 03:44:37;;;;;;;6.90;4.10;;;;;;;2.80;100.00;100698.81;5066721;28;20681;-69
2023/04/27 03:47:07;;;;;;;7.27;3.83;;;;;;;2.71;100.00;100708.81;5067010;28;20753;-69
2023/04/27 03:49:35;;;;;;;7.90;3.57;;;;;;;2.65;100.00;100724.19;5066130;28;20199;-69
2023/04/27 03:52:02;;;;;;;7.50;4.40;;;;;;;2.62;100.00;100719.72;5051428;28;20776;-69
2023/04/27 03:54:30;;;;;;;6.33;3.97;;;;;;;2.84;100.00;100721.69;5049916;28;20240;-69
2023/04/27 03:56:57;;;;;;;6.90;4.27;;;;;;;2.94;100.00;100718.72;5068292;28;20213;-67
2023/04/27 03:59:23;;;;;;;6.57;4.53;;;;;;;2.96;100.00;100719.69;5066521;28;20259;-68
2023/04/27 04:01:50;;;;;;;7.07;4.13;;;;;;;3.12;100.00;100727.44;5069485;28;20689;-70
2023/04/27 04:04:16;;;;;;;11.23;4.80;;;;;;;3.19;100.00;100730.34;5064501;28;20667;-69
2023/04/27 04:06:43;;;;;;;7.70;4.67;;;;;;;3.23;100.00;100730.59;5069315;28;20218;-69
2023/04/27 04:09:11;;;;;;;9.37;4.80;;;;;;;3.40;100.00;100734.00;5049949;28;20702;-69
2023/04/27 04:11:37;;;;;;;7.80;4.67;;;;;;;3.38;100.00;100726.06;5060225;28;20690;-69
2023/04/27 04:14:04;;;;;;;8.67;4.60;;;;;;;3.32;100.00;100728.41;5067414;28;20241;-69
2023/04/27 04:16:34;;;;;;;7.90;4.43;;;;;;;3.32;100.00;100732.75;5066321;28;20224;-69
2023/04/27 04:19:00;;;;;;;9.33;5.43;;;;;;;3.28;100.00;100736.03;5068155;28;20237;-70
2023/04/27 04:21:27;;;;;;;8.73;4.60;;;;;;;3.33;100.00;100734.53;5067948;28;20190;-69
2023/04/27 04:23:53;;;;;;;9.10;4.97;;;;;;;3.25;100.00;100731.56;5068324;28;20200;-69
2023/04/27 04:26:22;;;;;;;8.33;4.83;;;;;;;3.19;100.00;100741.72;5078148;22;20232;-70
2023/04/27 04:28:48;;;;;;;6.57;4.63;;;;;;;3.09;100.00;100735.13;5039690;28;20691;-70
2023/04/27 04:31:17;;;;;;;8.10;4.60;;;;;;;3.11;100.00;100727.38;5043762;28;20278;-69
2023/04/27 04:33:43;;;;;;;9.47;4.70;;;;;;;3.07;100.00;100728.94;5044872;28;20294;-70
2023/04/27 04:36:09;;;;;;;12.53;5.00;;;;;;;3.15;100.00;100743.28;5045014;28;20262;-69
2023/04/27 04:38:36;;;;;;;7.73;4.80;;;;;;;3.24;100.00;100739.34;5045172;28;20205;-69
2023/04/27 04:41:03;;;;;;;14.10;4.90;;;;;;;3.17;100.00;100740.72;5046172;28;20199;-69
2023/04/27 04:43:29;;;;;;;8.97;4.50;;;;;;;3.16;100.00;100746.78;5045740;28;20547;-69
2023/04/27 04:45:56;;;;;;;8.37;5.30;;;;;;;3.23;100.00;100748.91;5043894;28;20231;-70
2023/04/27 04:48:22;;;;;;;9.90;5.17;;;;;;;3.29;100.00;100750.91;5045076;28;20668;-69
2023/04/27 04:50:49;;;;;;;8.63;5.50;;;;;;;3.37;100.00;100749.56;5047303;28;20225;-70
2023/04/27 04:53:15;;;;;;;8.40;4.80;;;;;;;3.41;100.00;100757.63;5045569;28;20690;-69
2023/04/27 04:55:41;;;;;;;11.30;4.87;;;;;;;3.47;100.00;100757.03;5043963;28;20239;-69
2023/04/27 04:58:08;;;;;;;8.20;4.90;;;;;;;3.47;100.00;100751.78;5045845;28;20205;-68
2023/04/27 05:00:34;;;;;;;10.27;5.30;;;;;;;3.57;100.00;100750.50;5033872;28;20192;-70
2023/04/27 05:03:01;;;;;;;8.57;5.40;;;;;;;3.72;100.00;100752.13;5035545;28;20259;-70
2023/04/27 05:05:28;;;;;;;8.93;5.10;;;;;;;3.84;100.00;100757.03;5042005;28;20220;-69
2023/04/27 05:07:54;;;;;;;9.73;5.33;;;;;;;3.90;100.00;100743.31;5049060;28;20199;-69
2023/04/27 05:10:20;;;;;;;7.53;4.63;;;;;;;3.99;100.00;100756.81;5046443;28;20255;-69
2023/04/27 05:12:47;;;;;;;9.27;5.67;;;;;;;4.03;100.00;100767.53;5043677;28;20277;-70
2023/04/27 05:15:13;;;;;;;12.77;5.40;;;;;;;4.13;100.00;100765.31;5040901;28;20236;-69
2023/04/27 05:17:39;;;;;;;8.83;5.90;;;;;;;4.20;100.00;100767.38;5046178;28;20201;-71
2023/04/27 05:20:07;;;;;;;9.67;5.20;;;;;;;4.38;100.00;100769.09;5039357;28;20198;-72
2023/04/27 05:22:33;;;;;;;10.67;5.93;;;;;;;4.56;100.00;100771.63;5046875;28;20190;-69
2023/04/27 05:25:00;;;;;;;10.23;5.37;;;;;;;4.64;100.00;100770.22;5043398;28;20196;-69
2023/04/27 05:27:26;;;;;;;11.10;6.43;;;;;;;4.63;100.00;100775.41;5042953;28;20281;-72
2023/04/27 05:29:52;;;;;;;11.37;6.17;;;;;;;4.80;100.00;100774.38;5045441;28;20224;-72
2023/04/27 05:32:18;;;;;;;11.13;5.57;;;;;;;4.88;100.00;100780.00;5045568;28;20322;-71
2023/04/27 05:34:45;;;;;;;11.33;5.87;;;;;;;4.93;100.00;100779.34;5050548;28;20236;-71
2023/04/27 05:37:14;;;;;;;11.53;5.70;;;;;;;5.06;100.00;100766.72;5048746;28;20215;-71
2023/04/27 05:39:41;;;;;;;8.93;5.73;;;;;;;5.22;100.00;100779.66;5036294;28;20203;-70
2023/04/27 05:42:10;;;;;;;8.30;5.47;;;;;;;5.43;99.13;100784.88;5043673;28;20584;-71
2023/04/27 05:44:36;;;;;;;9.33;6.00;;;;;;;5.74;98.28;100787.88;5028077;28;20686;-70
2023/04/27 05:47:02;;;;;;;11.37;6.13;;;;;;;6.32;94.67;100768.19;5043161;28;20694;-70
2023/04/27 05:49:29;;;;;;;12.63;6.40;;;;;;;6.67;92.79;100767.72;5041242;28;20199;-71
2023/04/27 05:51:57;;;;;;;13.13;6.00;;;;;;;7.11;89.88;100770.97;5045301;28;20694;-70
2023/04/27 05:54:24;;;;;;;8.90;5.57;;;;;;;7.60;86.71;100770.78;5045390;28;20230;-69
2023/04/27 05:56:50;;;;;;;11.23;5.97;;;;;;;7.39;86.70;100773.66;5045174;28;20222;-70
2023/04/27 05:59:17;;;;;;;10.77;5.80;;;;;;;7.10;87.91;100777.06;5040861;28;20285;-68
2023/04/27 06:01:43;;;;;;;10.33;5.43;;;;;;;6.97;88.89;100785.41;5032936;28;21801;-71
2023/04/27 06:04:09;;;;;;;10.43;5.77;;;;;;;7.01;88.89;100792.56;5046796;28;20745;-71
2023/04/27 06:06:36;;;;;;;9.40;5.90;;;;;;;6.94;88.25;100786.22;5046990;28;20258;-71
2023/04/27 06:09:03;;;;;;;12.87;5.63;;;;;;;7.11;87.39;100797.28;5046171;28;20203;-69
2023/04/27 06:11:29;;;;;;;10.97;5.70;;;;;;;7.30;86.61;100799.72;5043231;28;20730;-70
2023/04/27 06:13:55;;;;;;;7.87;5.20;;;;;;;7.42;84.40;100796.56;5041384;28;20212;-71
2023/04/27 06:16:22;;;;;;;9.00;5.57;;;;;;;7.71;83.30;100798.41;5043573;28;20261;-70
2023/04/27 06:18:49;;;;;;;8.53;5.33;;;;;;;7.96;81.64;100794.78;5041770;28;20202;-72
2023/04/27 06:21:16;;;;;;;7.37;5.23;;;;;;;7.87;82.29;100802.41;5044326;28;20192;-71
2023/04/27 06:23:42;;;;;;;9.27;5.37;;;;;;;7.85;81.20;100797.09;5041529;28;20204;-72
2023/04/27 06:26:09;;;;;;;10.57;5.53;;;;;;;7.74;82.06;100805.53;5041867;28;20661;-70
2023/04/27 06:28:35;;;;;;;8.13;5.63;;;;;;;7.77;82.59;100806.50;5030055;28;20207;-72
2023/04/27 06:31:01;;;;;;;9.97;5.40;;;;;;;8.04;80.68;100809.09;5043695;28;20820;-72
2023/04/27 06:33:28;;;;;;;8.83;5.50;;;;;;;8.39;78.15;100804.88;5044781;28;20215;-70
2023/04/27 06:35:54;;;;;;;10.67;5.23;;;;;;;8.54;75.58;100800.91;5047040;28;20315;-70
2023/04/27 06:38:21;;;;;;;9.73;5.20;;;;;;;8.78;75.42;100805.09;5044576;28;20749;-71
2023/04/27 06:40:51;;;;;;;9.57;5.53;;;;;;;8.82;73.38;100802.56;5030180;28;20228;-70
2023/04/27 06:43:18;;;;;;;7.27;5.23;;;;;;;9.00;73.37;100806.56;5043133;28;20197;-72
2023/04/27 06:45:44;;;;;;;8.83;4.47;;;;;;;9.37;69.21;100805.78;5044432;28;20253;-73
2023/04/27 06:48:11;;;;;;;6.70;4.27;;;;;;;10.11;64.73;100808.38;5045171;28;20198;-70
2023/04/27 06:50:37;;;;;;;10.73;4.50;;;;;;;10.73;62.03;100810.56;5046574;28;20204;-70
2023/04/27 06:53:04;;;;;;;6.40;4.13;;;;;;;11.15;57.44;100795.47;5045695;28;20211;-71
2023/04/27 06:55:30;;;;;;;7.63;4.20;;;;;;;11.99;54.47;100798.59;5045641;28;20309;-70
2023/04/27 06:57:57;;;;;;;10.27;4.50;;;;;;;12.86;49.97;100792.63;5047961;28;20232;-72
2023/04/27 07:00:23;;;;;;;8.57;4.83;;;;;;;13.11;48.79;100793.72;5043816;28;20195;-73
2023/04/27 07:02:50;;;;;;;6.60;4.60;;;;;;;13.64;46.36;100794.25;5023124;28;20739;-72
2023/04/27 07:05:17;;;;;;;7.97;4.80;;;;;;;13.95;44.04;100790.00;5038013;28;20203;-71
2023/04/27 07:07:43;;;;;;;10.87;4.73;;;;;;;13.55;44.64;100807.47;5028520;28;20686;-72
2023/04/27 07:10:10;;;;;;;9.97;4.30;;;;;;;13.97;43.73;100800.66;5044578;28;20207;-73
2023/04/27 07:12:37;;;;;;;10.47;4.13;;;;;;;14.87;41.59;100791.34;5039639;28;20225;-72
2023/04/27 07:15:05;;;;;;;7.80;3.97;;;;;;;14.94;40.46;100797.56;5044317;28;20194;-74
2023/04/27 07:17:32;;;;;;;13.13;4.20;;;;;;;15.56;39.19;100792.25;5044339;28;20641;-76
2023/04/27 07:20:00;;;;;;;13.57;4.23;;;;;;;16.32;36.99;100791.25;5044569;28;20747;-74
2023/04/27 07:22:27;;;;;;;14.27;4.27;;;;;;;16.79;35.73;100803.56;5020545;28;20218;-71
2023/04/27 07:24:54;;;;;;;9.33;3.80;;;;;;;17.41;34.63;100803.16;5043325;28;20208;-72
2023/04/27 07:27:21;;;;;;;6.43;3.10;;;;;;;17.09;33.51;100794.47;5034171;28;20231;-74
2023/04/27 07:29:47;;;;;;;12.23;3.47;;;;;;;17.36;33.58;100798.75;5042389;28;20223;-80
2023/04/27 07:32:14;;;;;;;6.73;3.37;;;;;;;18.16;32.74;100794.44;5041849;28;20629;-70
2023/04/27 07:34:40;;;;;;;9.53;3.07;;;;;;;17.84;32.33;100797.44;5042529;28;20245;-80
2023/04/27 07:37:19;;;;;;;5.67;2.80;;;;;;;17.12;32.93;100798.00;5042654;28;20229;-72
2023/04/27 07:39:46;;;;;;;5.40;3.00;;;;;;;17.05;32.87;100788.25;5043893;28;20267;-77
2023/04/27 07:42:12;;;;;;;6.57;3.00;;;;;;;17.38;34.12;100787.13;5041220;28;20671;-81
2023/04/27 07:44:39;;;;;;;24.23;5.00;;;;;;;17.74;33.41;100782.38;5043393;28;20203;-73
2023/04/27 07:47:06;;;;;;;8.60;3.77;;;;;;;17.71;34.02;100782.41;5041810;28;20216;-72
2023/04/27 07:49:33;;;;;;;7.47;3.30;;;;;;;17.61;33.62;100780.66;5041972;28;20257;-80
2023/04/27 07:52:00;;;;;;;7.50;3.43;;;;;;;17.22;34.26;100780.13;5043653;28;20237;-73
2023/04/27 07:54:27;;;;;;;7.90;3.50;;;;;;;16.32;36.11;100783.22;5039812;28;20215;-74
2023/04/27 07:56:53;;;;;;;9.87;3.43;;;;;;;15.65;37.54;100780.75;5044856;28;20225;-71
2023/04/27 07:59:19;;;;;;;8.27;3.60;;;;;;;15.47;38.76;100778.03;5019416;28;20192;-70
2023/04/27 08:01:46;;;;;;;7.43;3.47;;;;;;;15.54;39.30;100779.81;5042021;28;20275;-75
2023/04/27 08:04:12;;;;;;;6.23;3.33;;;;;;;15.45;39.90;100779.81;5039284;28;20277;-74
2023/04/27 08:06:39;;;;;;;5.30;3.20;;;;;;;15.38;38.34;100775.38;5033316;28;20226;-70
2023/04/27 08:09:06;;;;;;;10.30;3.47;;;;;;;15.26;38.95;100774.50;5037728;28;20705;-76
2023/04/27 08:11:33;;;;;;;7.63;2.97;;;;;;;14.75;39.37;100769.94;5045250;28;20622;-70
2023/04/27 08:13:59;;;;;;;6.73;3.13;;;;;;;14.71;39.40;100771.72;5045197;28;20198;-70
2023/04/27 08:16:26;;;;;;;6.53;3.13;;;;;;;14.55;39.96;100772.56;5041868;28;20233;-72
2023/04/27 08:18:53;;;;;;;7.37;2.93;;;;;;;14.36;40.07;100778.66;5040714;28;20213;-73
2023/04/27 08:21:19;;;;;;;6.60;2.70;;;;;;;14.04;40.87;100773.19;5043973;28;20254;-76
2023/04/27 08:23:46;;;;;;;7.33;2.70;;;;;;;14.11;41.46;100773.25;5029573;28;20201;-69
2023/04/27 08:26:14;;;;;;;4.10;2.50;;;;;;;14.12;40.68;100766.13;5038494;28;20302;-74
2023/04/27 08:28:40;;;;;;;7.00;2.80;;;;;;;14.30;40.80;100768.88;5040535;28;20273;-71
2023/04/27 08:31:07;;;;;;;6.33;2.80;;;;;;;14.45;40.04;100767.22;5039783;28;20237;-76
2023/04/27 08:33:33;;;;;;;5.13;2.40;;;;;;;14.69;39.18;100762.81;5027388;28;20626;-72
2023/04/27 08:36:00;;;;;;;6.27;3.13;;;;;;;14.63;38.04;100770.81;5044994;28;20215;-74
2023/04/27 08:38:26;;;;;;;5.03;2.83;;;;;;;14.54;38.93;100767.22;5050741;28;20230;-73
2023/04/27 08:40:52;;;;;;;5.90;3.00;;;;;;;14.77;38.84;100769.94;5036046;28;20553;-73
2023/04/27 08:43:19;;;;;;;5.87;2.70;;;;;;;14.88;38.63;100765.56;5028517;28;20293;-74
2023/04/27 08:45:48;;;;;;;6.63;2.93;;;;;;;14.84;38.33;100766.44;5047373;28;20283;-72
2023/04/27 08:48:14;;;;;;;5.07;2.80;;;;;;;14.83;38.43;100775.31;5047235;28;20469;-73
2023/04/27 08:50:43;;;;;;;4.53;2.63;;;;;;;14.55;38.31;100782.34;5046714;28;20240;-71
2023/04/27 08:53:21;;;;;;;5.37;2.80;;;;;;;14.66;38.93;100775.25;5045503;28;20214;-73
2023/04/27 08:55:48;;;;;;;6.93;2.80;;;;;;;14.61;38.18;100775.25;5048521;28;20902;-71
2023/04/27 08:58:15;;;;;;;5.40;2.60;;;;;;;14.76;38.70;100770.84;5044660;28;20233;-74
2023/04/27 09:00:43;;;;;;;3.97;2.57;;;;;;;14.92;38.42;100781.56;5025947;28;20269;-73
2023/04/27 09:03:25;;;;;;;3.67;2.63;;;;;;;15.23;38.19;100781.59;5041792;28;20191;-73
2023/04/27 09:05:52;;;;;;;5.70;2.60;;;;;;;15.42;37.29;100777.16;5044234;28;20226;-73
2023/04/27 09:08:45;;;;;;;4.40;2.30;;;;;;;15.34;37.25;100774.50;5028601;28;20664;-70
2023/04/27 09:11:27;;;;;;;7.43;2.80;;;;;;;15.49;36.59;100765.56;5041812;28;20678;-74
2023/04/27 09:13:53;;;;;;;5.03;2.63;;;;;;;15.23;35.39;100770.94;5048877;28;20233;-72
2023/04/27 09:16:25;;;;;;;12.10;3.53;;;;;;;15.36;35.93;100768.25;5047264;28;20217;-74
2023/04/27 09:18:52;;;;;;;6.53;2.60;;;;;;;15.54;35.88;100771.78;5047051;28;20281;-72
2023/04/27 09:21:27;;;;;;;6.47;2.70;;;;;;;15.55;36.00;100779.81;5031456;28;20806;-73
2023/04/27 09:23:54;;;;;;;6.83;2.63;;;;;;;15.65;35.67;100768.28;5045598;28;20690;-73
2023/04/27 09:26:25;;;;;;;5.87;2.80;;;;;;;15.85;35.28;100760.22;5045432;28;20222;-73
2023/04/27 09:28:56;;;;;;;9.03;3.03;;;;;;;15.94;35.75;100764.66;5046761;28;20205;-73
2023/04/27 09:31:33;;;;;;;4.80;2.90;;;;;;;16.03;34.17;100759.31;5048754;28;20218;-73
2023/04/27 09:33:59;;;;;;;7.47;2.80;;;;;;;16.10;34.44;100765.50;5047321;28;20249;-73
2023/04/27 09:36:26;;;;;;;8.27;2.87;;;;;;;16.09;33.87;100761.06;5047655;28;20231;-70
2023/04/27 09:38:53;;;;;;;8.63;2.97;;;;;;;16.10;33.92;100755.72;5047817;28;20219;-72
2023/04/27 09:41:19;;;;;;;5.80;2.83;;;;;;;16.09;33.24;100756.59;5046101;28;20205;-72
2023/04/27 09:43:46;;;;;;;5.93;3.13;;;;;;;16.08;33.91;100752.16;5042899;28;20659;-72
2023/04/27 09:46:13;;;;;;;7.80;3.20;;;;;;;16.06;33.41;100759.28;5047769;28;20776;-72
2023/04/27 09:48:40;;;;;;;7.57;2.77;;;;;;;16.13;33.63;100753.03;5047566;28;20754;-72
2023/04/27 09:51:07;;;;;;;5.43;2.57;;;;;;;16.18;32.86;100747.66;5047703;28;20195;-72
2023/04/27 09:53:45;;;;;;;5.23;2.80;;;;;;;16.29;33.13;100748.50;5047134;28;20306;-72
2023/04/27 09:56:37;;;;;;;5.17;3.10;;;;;;;15.53;34.20;100743.31;5042733;28;20218;-70
2023/04/27 09:59:41;;;;;;;8.60;3.10;;;;;;;15.68;35.54;100747.81;5048818;28;20210;-70
2023/04/27 10:02:11;;;;;;;7.33;3.00;;;;;;;15.59;34.49;100752.25;5048595;28;20201;-71
2023/04/27 10:05:37;;;;;;;6.30;3.20;;;;;;;15.67;34.17;100744.25;5048468;28;20195;-71
2023/04/27 10:08:04;;;;;;;7.33;3.13;;;;;;;15.44;34.50;100740.66;4947572;28;20706;-71
2023/04/27 10:10:42;;;;;;;5.20;3.20;;;;;;;15.74;35.30;100737.09;5024815;28;20250;-73
2023/04/27 10:13:23;;;;;;;8.67;2.93;;;;;;;16.10;34.36;100742.34;5050559;28;20678;-72
2023/04/27 10:15:50;;;;;;;5.17;3.20;;;;;;;16.49;34.26;100743.97;5048022;28;20861;-71
2023/04/27 10:18:28;;;;;;;5.23;3.03;;;;;;;16.72;34.08;100737.63;5048483;28;20691;-69
2023/04/27 10:20:54;;;;;;;5.33;3.13;;;;;;;16.91;32.75;100736.63;5047890;28;20234;-70
2023/04/27 10:23:24;;;;;;;5.13;3.30;;;;;;;17.29;33.15;100732.75;5047216;28;20199;-70
2023/04/27 10:25:53;;;;;;;3.80;2.63;;;;;;;17.30;32.71;100730.06;5054270;22;20706;-71
2023/04/27 10:28:22;;;;;;;8.23;3.30;;;;;;;17.36;32.65;100731.81;5006739;28;20260;-70
2023/04/27 10:30:48;;;;;;;7.37;3.60;;;;;;;17.54;31.96;100724.47;5009923;28;20211;-72
2023/04/27 10:33:17;;;;;;;4.03;3.07;;;;;;;17.85;31.62;100709.00;5010195;28;20216;-72
2023/04/27 10:36:12;;;;;;;6.37;3.47;;;;;;;17.92;31.74;100707.13;5021872;28;20632;-72
2023/04/27 10:38:40;;;;;;;7.23;3.40;;;;;;;18.25;31.54;100719.25;5003463;28;20204;-70
2023/04/27 10:41:13;;;;;;;6.03;4.00;;;;;;;18.16;31.73;100722.94;4982829;28;20211;-72
2023/04/27 10:43:40;;;;;;;7.83;3.70;;;;;;;18.43;30.16;100721.72;5004472;28;20205;-71
2023/04/27 10:46:14;;;;;;;8.30;3.77;;;;;;;18.62;30.68;100725.06;4985088;28;20655;-72
2023/04/27 10:48:42;;;;;;;7.90;3.63;;;;;;;18.91;30.29;100727.31;5003587;28;20820;-71
2023/04/27 10:51:08;;;;;;;10.87;4.43;;;;;;;18.46;29.48;100731.50;5001474;28;20200;-71
2023/04/27 10:53:36;;;;;;;4.60;3.50;;;;;;;18.51;29.23;100728.75;5003174;28;20224;-72
2023/04/27 10:56:05;;;;;;;8.00;3.87;;;;;;;18.64;29.96;100727.72;5013299;28;20224;-72
2023/04/27 10:58:32;;;;;;;7.67;4.30;;;;;;;18.84;30.37;100725.63;5008299;28;21312;-72
2023/04/27 11:01:23;;;;;;;7.80;4.00;;;;;;;19.24;29.18;100722.31;4989863;28;20594;-72
2023/04/27 11:03:57;;;;;;;7.10;4.13;;;;;;;19.68;30.07;100710.81;4993326;28;20287;-72
2023/04/27 11:06:24;;;;;;;5.77;4.23;;;;;;;19.88;27.84;100710.44;5011062;28;20302;-71
2023/04/27 11:08:53;;;;;;;8.30;4.05;;;;;;;19.77;28.93;100707.94;4982783;28;20192;-71
2023/04/27 11:11:19;;;;;;;7.22;4.00;;;;;;;19.93;29.02;100693.28;5009052;28;20204;-71
2023/04/27 11:13:49;;;;;;;6.30;3.55;;;;;;;19.76;28.30;100697.22;5009810;28;20270;-71
2023/04/27 11:16:15;;;;;;;7.70;3.90;;;;;;;19.86;28.71;100697.00;5008000;28;20743;-72
2023/04/27 11:18:42;;;;;;;6.70;3.83;;;;;;;19.87;28.31;100706.84;4996919;28;20199;-71
2023/04/27 11:21:11;;;;;;;6.80;4.45;;;;;;;19.51;27.64;100692.28;5012945;28;20721;-69
2023/04/27 11:23:38;;;;;;;6.25;3.85;;;;;;;19.30;28.25;100696.25;5004866;28;20200;-71
2023/04/27 11:26:15;;;;;;;6.10;3.90;;;;;;;19.51;28.79;100688.69;5006442;28;20307;-70
2023/04/27 11:29:08;;;;;;;8.48;4.40;;;;;;;19.58;28.95;100687.69;5006772;28;20719;-71
2023/04/27 11:31:42;;;;;;;7.80;3.40;;;;;;;19.75;28.65;100680.22;5009072;28;20568;-73